Hlavní strana
METAR-TAF:

METAR-TAF

Letiště :

Nairobi, Keňa

zeměpisná šířka: 01-19S, zeměpisná délka: 036-49E, výška: 1683 m

Aktuální stav počasí

Zpráva byla vytvořena před 1 hodinou a 23 minutami, v 08:00 UTC
Jihojihozápadní vítr 10 kt
Teplota 21°C
Vlhkost vzduchu 49%
Tlak 1025 hPa
Viditelnost 10 km a více
Skoro jasno ve výšce 2300 ft

METAR: HKNW 280800Z 21010KT 9999 FEW023 21/10 Q1025

Čas: 12:23 (09:23 UTC)


TAF: chybějící

Stav a předpovědi počasí z více než 4 000 letišť (zprávy METAR a TAF).

Červené a žluté tečky na mapě představují dostupné meteorologické stanice.

Když kurzor umístíte na tečku, zobrazí se název stanice.

Pak kliknutím zobrazíte stav a předpověď počasí.

Chcete-li změnit mapu, kliknutím na zelené tlačítko se znaménkem +mapu přiblížíte, kliknutím na zelené tlačítko se znaménkem – mapu oddálíte a kliknutím na zelené šipky přejdete na sousední mapy.


METAR-TAF: